sensor_id;sensor_type;location;lat;lon;timestamp;temperature;humidity
51908;DHT22;39320;53.214;6.556;2023-06-26T00:01:33;25.50;92.40
51908;DHT22;39320;53.214;6.556;2023-06-26T00:04:00;25.50;92.40
51908;DHT22;39320;53.214;6.556;2023-06-26T00:06:26;25.50;92.40
51908;DHT22;39320;53.214;6.556;2023-06-26T00:08:53;25.50;92.80
51908;DHT22;39320;53.214;6.556;2023-06-26T00:11:20;25.40;92.40
51908;DHT22;39320;53.214;6.556;2023-06-26T00:13:45;25.40;92.50
51908;DHT22;39320;53.214;6.556;2023-06-26T00:16:11;25.40;92.60
51908;DHT22;39320;53.214;6.556;2023-06-26T00:18:37;25.40;92.70
51908;DHT22;39320;53.214;6.556;2023-06-26T00:21:03;25.40;92.70
51908;DHT22;39320;53.214;6.556;2023-06-26T00:23:28;25.30;92.70
51908;DHT22;39320;53.214;6.556;2023-06-26T00:25:56;25.30;92.80
51908;DHT22;39320;53.214;6.556;2023-06-26T00:28:22;25.30;92.70
51908;DHT22;39320;53.214;6.556;2023-06-26T00:30:47;25.30;92.70
51908;DHT22;39320;53.214;6.556;2023-06-26T00:33:13;25.30;92.80
51908;DHT22;39320;53.214;6.556;2023-06-26T00:35:39;25.30;92.70
51908;DHT22;39320;53.214;6.556;2023-06-26T00:38:05;25.20;92.70
51908;DHT22;39320;53.214;6.556;2023-06-26T00:40:30;25.30;93.10
51908;DHT22;39320;53.214;6.556;2023-06-26T00:42:56;25.20;92.80
51908;DHT22;39320;53.214;6.556;2023-06-26T00:45:22;25.20;92.80
51908;DHT22;39320;53.214;6.556;2023-06-26T00:47:48;25.20;92.90
51908;DHT22;39320;53.214;6.556;2023-06-26T00:50:14;25.20;93.00
51908;DHT22;39320;53.214;6.556;2023-06-26T00:52:41;25.20;93.10
51908;DHT22;39320;53.214;6.556;2023-06-26T00:55:07;25.20;93.00
51908;DHT22;39320;53.214;6.556;2023-06-26T00:57:34;25.20;93.10
51908;DHT22;39320;53.214;6.556;2023-06-26T01:00:01;25.20;93.10
51908;DHT22;39320;53.214;6.556;2023-06-26T01:02:30;25.10;93.00
51908;DHT22;39320;53.214;6.556;2023-06-26T01:05:00;25.10;93.10
51908;DHT22;39320;53.214;6.556;2023-06-26T01:07:29;25.10;93.20
51908;DHT22;39320;53.214;6.556;2023-06-26T01:09:58;25.10;93.20
51908;DHT22;39320;53.214;6.556;2023-06-26T01:12:24;25.10;93.30
51908;DHT22;39320;53.214;6.556;2023-06-26T01:14:50;25.10;93.40
51908;DHT22;39320;53.214;6.556;2023-06-26T01:17:16;25.00;93.40
51908;DHT22;39320;53.214;6.556;2023-06-26T01:19:42;25.00;93.40
51908;DHT22;39320;53.214;6.556;2023-06-26T01:25:17;24.90;93.60
51908;DHT22;39320;53.214;6.556;2023-06-26T01:27:48;25.00;93.70
51908;DHT22;39320;53.214;6.556;2023-06-26T01:30:16;24.90;93.70
51908;DHT22;39320;53.214;6.556;2023-06-26T01:32:44;24.90;93.80
51908;DHT22;39320;53.214;6.556;2023-06-26T01:35:11;24.90;93.90
51908;DHT22;39320;53.214;6.556;2023-06-26T01:37:37;24.90;94.00
51908;DHT22;39320;53.214;6.556;2023-06-26T01:40:02;24.90;94.40
51908;DHT22;39320;53.214;6.556;2023-06-26T01:42:32;24.80;94.50
51908;DHT22;39320;53.214;6.556;2023-06-26T01:45:07;24.90;94.20
51908;DHT22;39320;53.214;6.556;2023-06-26T01:47:37;24.80;94.20
51908;DHT22;39320;53.214;6.556;2023-06-26T01:50:12;24.80;94.30
51908;DHT22;39320;53.214;6.556;2023-06-26T01:52:49;24.80;94.40
51908;DHT22;39320;53.214;6.556;2023-06-26T01:55:23;24.80;94.40
51908;DHT22;39320;53.214;6.556;2023-06-26T01:57:54;24.80;94.70
51908;DHT22;39320;53.214;6.556;2023-06-26T02:00:21;24.70;94.70
51908;DHT22;39320;53.214;6.556;2023-06-26T02:02:49;24.70;94.70
51908;DHT22;39320;53.214;6.556;2023-06-26T02:05:14;24.70;94.80
51908;DHT22;39320;53.214;6.556;2023-06-26T02:07:40;24.70;94.90
51908;DHT22;39320;53.214;6.556;2023-06-26T02:10:07;24.70;95.10
51908;DHT22;39320;53.214;6.556;2023-06-26T02:12:33;24.60;95.10
51908;DHT22;39320;53.214;6.556;2023-06-26T02:14:59;24.60;95.20
51908;DHT22;39320;53.214;6.556;2023-06-26T02:17:25;24.60;95.30
51908;DHT22;39320;53.214;6.556;2023-06-26T02:19:50;24.60;95.30
51908;DHT22;39320;53.214;6.556;2023-06-26T02:22:16;24.60;95.50
51908;DHT22;39320;53.214;6.556;2023-06-26T02:24:43;24.60;95.60
51908;DHT22;39320;53.214;6.556;2023-06-26T02:27:09;24.60;95.70
51908;DHT22;39320;53.214;6.556;2023-06-26T02:29:36;24.60;95.80
51908;DHT22;39320;53.214;6.556;2023-06-26T02:32:01;24.60;95.80
51908;DHT22;39320;53.214;6.556;2023-06-26T02:34:27;24.60;95.90
51908;DHT22;39320;53.214;6.556;2023-06-26T02:36:53;24.60;95.80
51908;DHT22;39320;53.214;6.556;2023-06-26T02:39:24;24.60;95.70
51908;DHT22;39320;53.214;6.556;2023-06-26T02:41:50;24.50;95.60
51908;DHT22;39320;53.214;6.556;2023-06-26T02:44:16;24.50;95.50
51908;DHT22;39320;53.214;6.556;2023-06-26T02:46:41;24.50;95.80
51908;DHT22;39320;53.214;6.556;2023-06-26T02:49:07;24.50;95.40
51908;DHT22;39320;53.214;6.556;2023-06-26T02:51:34;24.50;95.50
51908;DHT22;39320;53.214;6.556;2023-06-26T02:54:00;24.50;95.40
51908;DHT22;39320;53.214;6.556;2023-06-26T02:56:26;24.50;95.40
51908;DHT22;39320;53.214;6.556;2023-06-26T02:58:58;24.40;95.50
51908;DHT22;39320;53.214;6.556;2023-06-26T03:01:24;24.40;95.50
51908;DHT22;39320;53.214;6.556;2023-06-26T03:03:50;24.40;95.60
51908;DHT22;39320;53.214;6.556;2023-06-26T03:06:17;24.40;95.70
51908;DHT22;39320;53.214;6.556;2023-06-26T03:08:42;24.40;95.70
51908;DHT22;39320;53.214;6.556;2023-06-26T03:11:08;24.30;95.90
51908;DHT22;39320;53.214;6.556;2023-06-26T03:13:35;24.30;96.10
51908;DHT22;39320;53.214;6.556;2023-06-26T03:16:05;24.20;96.30
51908;DHT22;39320;53.214;6.556;2023-06-26T03:18:30;24.20;96.40
51908;DHT22;39320;53.214;6.556;2023-06-26T03:20:56;24.10;96.50
51908;DHT22;39320;53.214;6.556;2023-06-26T03:23:23;24.00;96.80
51908;DHT22;39320;53.214;6.556;2023-06-26T03:25:50;24.00;97.20
51908;DHT22;39320;53.214;6.556;2023-06-26T03:28:16;23.90;97.40
51908;DHT22;39320;53.214;6.556;2023-06-26T03:30:41;23.90;97.50
51908;DHT22;39320;53.214;6.556;2023-06-26T03:33:07;23.80;97.70
51908;DHT22;39320;53.214;6.556;2023-06-26T03:35:33;23.80;98.00
51908;DHT22;39320;53.214;6.556;2023-06-26T03:37:59;23.90;98.10
51908;DHT22;39320;53.214;6.556;2023-06-26T03:40:26;23.80;98.30
51908;DHT22;39320;53.214;6.556;2023-06-26T03:42:52;23.70;98.40
51908;DHT22;39320;53.214;6.556;2023-06-26T03:45:18;23.80;98.60
51908;DHT22;39320;53.214;6.556;2023-06-26T03:47:45;23.70;98.80
51908;DHT22;39320;53.214;6.556;2023-06-26T03:50:17;23.60;99.20
51908;DHT22;39320;53.214;6.556;2023-06-26T03:52:44;23.60;99.40
51908;DHT22;39320;53.214;6.556;2023-06-26T03:55:09;23.60;99.60
51908;DHT22;39320;53.214;6.556;2023-06-26T03:57:36;23.60;99.80
51908;DHT22;39320;53.214;6.556;2023-06-26T04:00:02;23.60;99.90
51908;DHT22;39320;53.214;6.556;2023-06-26T04:02:33;23.60;99.90
51908;DHT22;39320;53.214;6.556;2023-06-26T04:04:59;23.50;99.90
51908;DHT22;39320;53.214;6.556;2023-06-26T04:07:26;23.50;99.90
51908;DHT22;39320;53.214;6.556;2023-06-26T04:09:51;23.50;99.90
51908;DHT22;39320;53.214;6.556;2023-06-26T04:12:17;23.40;99.90
51908;DHT22;39320;53.214;6.556;2023-06-26T04:14:43;23.40;99.90
51908;DHT22;39320;53.214;6.556;2023-06-26T04:17:09;23.40;99.90
51908;DHT22;39320;53.214;6.556;2023-06-26T04:19:35;23.30;99.90
51908;DHT22;39320;53.214;6.556;2023-06-26T04:22:02;23.20;99.90
51908;DHT22;39320;53.214;6.556;2023-06-26T04:24:28;23.20;99.90
51908;DHT22;39320;53.214;6.556;2023-06-26T04:26:53;23.10;99.90
51908;DHT22;39320;53.214;6.556;2023-06-26T04:29:23;23.10;99.90
51908;DHT22;39320;53.214;6.556;2023-06-26T04:31:51;23.00;99.90
51908;DHT22;39320;53.214;6.556;2023-06-26T04:34:17;23.00;99.90
51908;DHT22;39320;53.214;6.556;2023-06-26T04:36:43;22.90;99.90
51908;DHT22;39320;53.214;6.556;2023-06-26T04:39:14;22.90;99.90
51908;DHT22;39320;53.214;6.556;2023-06-26T04:41:43;23.00;99.90
51908;DHT22;39320;53.214;6.556;2023-06-26T04:44:09;23.00;99.90
51908;DHT22;39320;53.214;6.556;2023-06-26T04:46:35;23.00;99.90
51908;DHT22;39320;53.214;6.556;2023-06-26T04:49:00;22.90;99.90
51908;DHT22;39320;53.214;6.556;2023-06-26T04:51:28;22.80;99.90
51908;DHT22;39320;53.214;6.556;2023-06-26T04:53:54;22.90;99.90
51908;DHT22;39320;53.214;6.556;2023-06-26T04:56:20;22.80;99.90
51908;DHT22;39320;53.214;6.556;2023-06-26T04:58:46;22.80;99.90
51908;DHT22;39320;53.214;6.556;2023-06-26T05:01:11;22.80;99.90
51908;DHT22;39320;53.214;6.556;2023-06-26T05:03:42;22.80;99.90
51908;DHT22;39320;53.214;6.556;2023-06-26T05:06:07;22.70;99.90
51908;DHT22;39320;53.214;6.556;2023-06-26T05:08:33;22.70;99.90
51908;DHT22;39320;53.214;6.556;2023-06-26T05:10:59;22.70;99.90
51908;DHT22;39320;53.214;6.556;2023-06-26T05:13:25;22.70;99.90
51908;DHT22;39320;53.214;6.556;2023-06-26T05:15:52;22.60;99.90
51908;DHT22;39320;53.214;6.556;2023-06-26T05:18:18;22.60;99.90
51908;DHT22;39320;53.214;6.556;2023-06-26T05:20:44;22.60;99.90
51908;DHT22;39320;53.214;6.556;2023-06-26T05:23:13;22.60;99.90
51908;DHT22;39320;53.214;6.556;2023-06-26T05:25:41;22.50;99.90
51908;DHT22;39320;53.214;6.556;2023-06-26T05:28:07;22.50;99.90
51908;DHT22;39320;53.214;6.556;2023-06-26T05:30:36;22.50;99.90
51908;DHT22;39320;53.214;6.556;2023-06-26T05:33:03;22.50;99.90
51908;DHT22;39320;53.214;6.556;2023-06-26T05:35:30;22.50;99.90
51908;DHT22;39320;53.214;6.556;2023-06-26T05:37:57;22.40;99.90
51908;DHT22;39320;53.214;6.556;2023-06-26T05:40:23;22.30;99.90
51908;DHT22;39320;53.214;6.556;2023-06-26T05:42:49;22.20;99.90
51908;DHT22;39320;53.214;6.556;2023-06-26T05:45:15;22.20;99.90
51908;DHT22;39320;53.214;6.556;2023-06-26T05:47:42;22.20;99.90
51908;DHT22;39320;53.214;6.556;2023-06-26T05:50:09;22.20;99.90
51908;DHT22;39320;53.214;6.556;2023-06-26T05:52:36;22.20;99.90
51908;DHT22;39320;53.214;6.556;2023-06-26T05:55:02;22.20;99.90
51908;DHT22;39320;53.214;6.556;2023-06-26T05:57:29;22.20;99.90
51908;DHT22;39320;53.214;6.556;2023-06-26T05:59:56;22.10;99.90
51908;DHT22;39320;53.214;6.556;2023-06-26T06:02:22;22.10;99.90
51908;DHT22;39320;53.214;6.556;2023-06-26T06:04:48;22.10;99.90
51908;DHT22;39320;53.214;6.556;2023-06-26T06:07:14;22.10;99.90
51908;DHT22;39320;53.214;6.556;2023-06-26T06:09:40;22.00;99.90
51908;DHT22;39320;53.214;6.556;2023-06-26T06:12:07;22.00;99.90
51908;DHT22;39320;53.214;6.556;2023-06-26T06:14:33;22.10;99.90
51908;DHT22;39320;53.214;6.556;2023-06-26T06:16:59;22.20;99.90
51908;DHT22;39320;53.214;6.556;2023-06-26T06:19:25;22.00;99.90
51908;DHT22;39320;53.214;6.556;2023-06-26T06:21:51;21.90;99.90
51908;DHT22;39320;53.214;6.556;2023-06-26T06:24:17;21.90;99.90
51908;DHT22;39320;53.214;6.556;2023-06-26T06:26:42;21.90;99.90
51908;DHT22;39320;53.214;6.556;2023-06-26T06:29:08;21.80;99.90
51908;DHT22;39320;53.214;6.556;2023-06-26T06:31:34;21.80;99.90
51908;DHT22;39320;53.214;6.556;2023-06-26T06:34:00;21.90;99.90
51908;DHT22;39320;53.214;6.556;2023-06-26T06:36:26;21.90;99.90
51908;DHT22;39320;53.214;6.556;2023-06-26T06:38:51;21.90;99.90
51908;DHT22;39320;53.214;6.556;2023-06-26T06:41:17;21.90;99.90
51908;DHT22;39320;53.214;6.556;2023-06-26T06:43:43;21.90;99.90
51908;DHT22;39320;53.214;6.556;2023-06-26T06:46:09;21.90;99.90
51908;DHT22;39320;53.214;6.556;2023-06-26T06:48:34;22.00;99.90
51908;DHT22;39320;53.214;6.556;2023-06-26T06:51:00;22.00;99.90
51908;DHT22;39320;53.214;6.556;2023-06-26T06:53:26;22.00;99.90
51908;DHT22;39320;53.214;6.556;2023-06-26T06:55:52;22.00;99.90
51908;DHT22;39320;53.214;6.556;2023-06-26T06:58:18;22.00;99.90
51908;DHT22;39320;53.214;6.556;2023-06-26T07:00:48;22.00;99.90
51908;DHT22;39320;53.214;6.556;2023-06-26T07:03:14;22.00;99.90
51908;DHT22;39320;53.214;6.556;2023-06-26T07:05:41;22.10;99.90
51908;DHT22;39320;53.214;6.556;2023-06-26T07:08:08;22.10;99.90
51908;DHT22;39320;53.214;6.556;2023-06-26T07:10:34;22.20;99.90
51908;DHT22;39320;53.214;6.556;2023-06-26T07:13:00;22.30;99.90
51908;DHT22;39320;53.214;6.556;2023-06-26T07:15:26;22.30;99.90
51908;DHT22;39320;53.214;6.556;2023-06-26T07:17:52;22.40;99.90
51908;DHT22;39320;53.214;6.556;2023-06-26T07:20:18;22.40;99.90
51908;DHT22;39320;53.214;6.556;2023-06-26T07:22:44;22.40;99.90
51908;DHT22;39320;53.214;6.556;2023-06-26T07:25:10;22.40;99.90
51908;DHT22;39320;53.214;6.556;2023-06-26T07:27:41;22.40;99.90
51908;DHT22;39320;53.214;6.556;2023-06-26T07:30:07;22.30;99.90
51908;DHT22;39320;53.214;6.556;2023-06-26T07:32:34;22.40;99.90
51908;DHT22;39320;53.214;6.556;2023-06-26T07:35:00;22.40;99.90
51908;DHT22;39320;53.214;6.556;2023-06-26T07:37:26;22.40;99.90
51908;DHT22;39320;53.214;6.556;2023-06-26T07:39:52;22.40;99.90
51908;DHT22;39320;53.214;6.556;2023-06-26T07:42:18;22.40;99.90
51908;DHT22;39320;53.214;6.556;2023-06-26T07:44:43;22.40;99.90
51908;DHT22;39320;53.214;6.556;2023-06-26T07:47:10;22.40;99.90
51908;DHT22;39320;53.214;6.556;2023-06-26T07:49:36;22.20;99.90
51908;DHT22;39320;53.214;6.556;2023-06-26T07:52:02;22.40;99.90
51908;DHT22;39320;53.214;6.556;2023-06-26T07:54:28;22.30;99.90
51908;DHT22;39320;53.214;6.556;2023-06-26T07:57:05;22.30;99.90
51908;DHT22;39320;53.214;6.556;2023-06-26T07:59:34;22.40;99.90
51908;DHT22;39320;53.214;6.556;2023-06-26T08:02:00;22.30;99.90
51908;DHT22;39320;53.214;6.556;2023-06-26T08:04:28;22.40;99.90
51908;DHT22;39320;53.214;6.556;2023-06-26T08:06:58;22.40;99.90
51908;DHT22;39320;53.214;6.556;2023-06-26T08:09:27;22.40;99.90
51908;DHT22;39320;53.214;6.556;2023-06-26T08:11:54;22.30;99.90
51908;DHT22;39320;53.214;6.556;2023-06-26T08:14:20;22.40;99.90
51908;DHT22;39320;53.214;6.556;2023-06-26T08:16:46;22.40;99.90
51908;DHT22;39320;53.214;6.556;2023-06-26T08:19:13;22.40;99.90
51908;DHT22;39320;53.214;6.556;2023-06-26T08:21:43;22.30;99.90
51908;DHT22;39320;53.214;6.556;2023-06-26T08:24:09;22.30;99.90
51908;DHT22;39320;53.214;6.556;2023-06-26T08:26:35;22.20;99.90
51908;DHT22;39320;53.214;6.556;2023-06-26T08:29:02;22.30;99.90
51908;DHT22;39320;53.214;6.556;2023-06-26T08:31:34;22.20;99.90
51908;DHT22;39320;53.214;6.556;2023-06-26T08:34:03;22.20;99.90
51908;DHT22;39320;53.214;6.556;2023-06-26T08:36:29;22.20;99.90
51908;DHT22;39320;53.214;6.556;2023-06-26T08:38:55;22.20;99.90
51908;DHT22;39320;53.214;6.556;2023-06-26T08:41:21;22.10;99.90
51908;DHT22;39320;53.214;6.556;2023-06-26T08:43:47;22.10;99.90
51908;DHT22;39320;53.214;6.556;2023-06-26T08:46:14;22.00;99.90
51908;DHT22;39320;53.214;6.556;2023-06-26T08:48:42;22.00;99.90
51908;DHT22;39320;53.214;6.556;2023-06-26T08:51:11;22.00;99.90
51908;DHT22;39320;53.214;6.556;2023-06-26T08:53:57;22.00;99.90
51908;DHT22;39320;53.214;6.556;2023-06-26T08:56:25;22.00;99.90
51908;DHT22;39320;53.214;6.556;2023-06-26T08:58:53;22.00;99.90
51908;DHT22;39320;53.214;6.556;2023-06-26T09:01:20;22.00;99.90
51908;DHT22;39320;53.214;6.556;2023-06-26T09:03:46;22.00;99.90
51908;DHT22;39320;53.214;6.556;2023-06-26T09:06:12;22.10;99.90
51908;DHT22;39320;53.214;6.556;2023-06-26T09:08:38;22.10;99.90
51908;DHT22;39320;53.214;6.556;2023-06-26T09:11:04;22.10;99.90
51908;DHT22;39320;53.214;6.556;2023-06-26T09:13:30;22.10;99.90
51908;DHT22;39320;53.214;6.556;2023-06-26T09:15:56;22.10;99.90
51908;DHT22;39320;53.214;6.556;2023-06-26T09:18:22;22.10;99.90
51908;DHT22;39320;53.214;6.556;2023-06-26T09:20:49;22.10;99.90
51908;DHT22;39320;53.214;6.556;2023-06-26T09:23:16;22.10;99.90
51908;DHT22;39320;53.214;6.556;2023-06-26T09:25:42;22.10;99.90
51908;DHT22;39320;53.214;6.556;2023-06-26T09:28:09;22.10;99.90
51908;DHT22;39320;53.214;6.556;2023-06-26T09:30:35;22.10;99.90
51908;DHT22;39320;53.214;6.556;2023-06-26T09:33:20;22.10;99.90
51908;DHT22;39320;53.214;6.556;2023-06-26T09:35:47;22.00;99.90
51908;DHT22;39320;53.214;6.556;2023-06-26T09:38:13;22.00;99.90
51908;DHT22;39320;53.214;6.556;2023-06-26T09:40:40;22.00;99.90
51908;DHT22;39320;53.214;6.556;2023-06-26T09:43:07;22.10;99.90
51908;DHT22;39320;53.214;6.556;2023-06-26T09:45:35;22.10;99.90
51908;DHT22;39320;53.214;6.556;2023-06-26T09:48:05;22.10;99.90
51908;DHT22;39320;53.214;6.556;2023-06-26T09:50:34;22.20;99.90
51908;DHT22;39320;53.214;6.556;2023-06-26T09:53:13;22.20;99.90
51908;DHT22;39320;53.214;6.556;2023-06-26T09:55:40;22.20;99.90
51908;DHT22;39320;53.214;6.556;2023-06-26T09:58:11;22.20;99.90
51908;DHT22;39320;53.214;6.556;2023-06-26T10:00:40;22.10;99.90
51908;DHT22;39320;53.214;6.556;2023-06-26T10:03:06;22.20;99.90
51908;DHT22;39320;53.214;6.556;2023-06-26T10:05:32;22.20;99.90
51908;DHT22;39320;53.214;6.556;2023-06-26T10:07:58;22.20;99.90
51908;DHT22;39320;53.214;6.556;2023-06-26T10:10:25;22.20;99.90
51908;DHT22;39320;53.214;6.556;2023-06-26T10:12:57;22.20;99.90
51908;DHT22;39320;53.214;6.556;2023-06-26T10:15:25;22.20;99.90
51908;DHT22;39320;53.214;6.556;2023-06-26T10:17:55;22.20;99.90
51908;DHT22;39320;53.214;6.556;2023-06-26T10:20:22;22.20;99.90
51908;DHT22;39320;53.214;6.556;2023-06-26T10:22:48;22.20;99.90
51908;DHT22;39320;53.214;6.556;2023-06-26T10:25:18;22.20;99.90
51908;DHT22;39320;53.214;6.556;2023-06-26T10:27:49;22.20;99.90
51908;DHT22;39320;53.214;6.556;2023-06-26T10:30:21;22.20;99.90
51908;DHT22;39320;53.214;6.556;2023-06-26T10:32:48;22.20;99.90
51908;DHT22;39320;53.214;6.556;2023-06-26T10:35:14;22.30;99.90
51908;DHT22;39320;53.214;6.556;2023-06-26T10:37:50;22.30;99.90
51908;DHT22;39320;53.214;6.556;2023-06-26T10:40:26;22.30;99.90
51908;DHT22;39320;53.214;6.556;2023-06-26T10:43:05;22.20;99.90
51908;DHT22;39320;53.214;6.556;2023-06-26T10:45:34;22.20;99.90
51908;DHT22;39320;53.214;6.556;2023-06-26T10:48:00;22.20;99.90
51908;DHT22;39320;53.214;6.556;2023-06-26T10:50:28;22.20;99.90
51908;DHT22;39320;53.214;6.556;2023-06-26T10:55:42;22.20;99.90
51908;DHT22;39320;53.214;6.556;2023-06-26T10:58:30;22.20;99.90
51908;DHT22;39320;53.214;6.556;2023-06-26T11:03:37;22.30;99.90
51908;DHT22;39320;53.214;6.556;2023-06-26T11:06:09;22.30;99.90
51908;DHT22;39320;53.214;6.556;2023-06-26T11:08:45;22.30;99.90
51908;DHT22;39320;53.214;6.556;2023-06-26T11:11:12;22.30;99.90
51908;DHT22;39320;53.214;6.556;2023-06-26T11:13:40;22.30;99.90
51908;DHT22;39320;53.214;6.556;2023-06-26T11:16:06;22.40;99.90
51908;DHT22;39320;53.214;6.556;2023-06-26T11:18:32;22.30;99.80
51908;DHT22;39320;53.214;6.556;2023-06-26T11:21:24;22.30;99.90
51908;DHT22;39320;53.214;6.556;2023-06-26T11:23:51;22.40;99.90
51908;DHT22;39320;53.214;6.556;2023-06-26T11:26:20;22.30;99.90
51908;DHT22;39320;53.214;6.556;2023-06-26T11:28:51;22.30;99.60
51908;DHT22;39320;53.214;6.556;2023-06-26T11:31:43;22.20;99.60
51908;DHT22;39320;53.214;6.556;2023-06-26T11:34:13;22.20;99.00
51908;DHT22;39320;53.214;6.556;2023-06-26T11:36:41;22.30;99.10
51908;DHT22;39320;53.214;6.556;2023-06-26T11:39:08;22.30;99.10
51908;DHT22;39320;53.214;6.556;2023-06-26T11:41:35;22.40;99.10
51908;DHT22;39320;53.214;6.556;2023-06-26T11:44:06;22.40;99.10
51908;DHT22;39320;53.214;6.556;2023-06-26T11:46:33;22.50;98.90
51908;DHT22;39320;53.214;6.556;2023-06-26T11:48:59;22.40;98.90
51908;DHT22;39320;53.214;6.556;2023-06-26T11:51:28;22.40;98.80
51908;DHT22;39320;53.214;6.556;2023-06-26T11:53:54;22.50;98.80
51908;DHT22;39320;53.214;6.556;2023-06-26T11:56:20;22.60;98.70
51908;DHT22;39320;53.214;6.556;2023-06-26T11:59:16;22.40;98.40
51908;DHT22;39320;53.214;6.556;2023-06-26T12:01:43;22.50;98.30
51908;DHT22;39320;53.214;6.556;2023-06-26T12:04:14;22.50;98.00
51908;DHT22;39320;53.214;6.556;2023-06-26T12:06:52;22.50;97.80
51908;DHT22;39320;53.214;6.556;2023-06-26T12:09:23;22.50;97.40
51908;DHT22;39320;53.214;6.556;2023-06-26T12:11:52;22.40;97.60
51908;DHT22;39320;53.214;6.556;2023-06-26T12:14:20;22.40;97.30
51908;DHT22;39320;53.214;6.556;2023-06-26T12:16:47;22.40;97.30
51908;DHT22;39320;53.214;6.556;2023-06-26T12:19:13;22.40;96.90
51908;DHT22;39320;53.214;6.556;2023-06-26T12:24:16;22.30;96.50
51908;DHT22;39320;53.214;6.556;2023-06-26T12:26:51;22.30;96.30
51908;DHT22;39320;53.214;6.556;2023-06-26T12:29:20;22.30;96.50
51908;DHT22;39320;53.214;6.556;2023-06-26T12:31:50;22.40;96.60
51908;DHT22;39320;53.214;6.556;2023-06-26T12:34:25;22.40;96.30
51908;DHT22;39320;53.214;6.556;2023-06-26T12:36:51;22.40;96.00
51908;DHT22;39320;53.214;6.556;2023-06-26T12:39:18;22.50;95.80
51908;DHT22;39320;53.214;6.556;2023-06-26T12:41:55;22.50;95.50
51908;DHT22;39320;53.214;6.556;2023-06-26T12:44:28;22.40;94.80
51908;DHT22;39320;53.214;6.556;2023-06-26T12:46:56;22.40;94.60
51908;DHT22;39320;53.214;6.556;2023-06-26T12:49:33;22.40;94.30
51908;DHT22;39320;53.214;6.556;2023-06-26T12:52:01;22.40;94.00
51908;DHT22;39320;53.214;6.556;2023-06-26T12:54:28;22.40;94.10
51908;DHT22;39320;53.214;6.556;2023-06-26T12:56:54;22.40;94.20
51908;DHT22;39320;53.214;6.556;2023-06-26T12:59:20;22.40;94.30
51908;DHT22;39320;53.214;6.556;2023-06-26T13:01:46;22.40;94.50
51908;DHT22;39320;53.214;6.556;2023-06-26T13:04:12;22.50;94.80
51908;DHT22;39320;53.214;6.556;2023-06-26T13:06:38;22.50;95.00
51908;DHT22;39320;53.214;6.556;2023-06-26T13:09:04;22.50;95.10
51908;DHT22;39320;53.214;6.556;2023-06-26T13:11:30;22.40;94.90
51908;DHT22;39320;53.214;6.556;2023-06-26T13:13:57;22.40;94.70
51908;DHT22;39320;53.214;6.556;2023-06-26T13:16:23;22.40;94.50
51908;DHT22;39320;53.214;6.556;2023-06-26T13:18:48;22.40;94.50
51908;DHT22;39320;53.214;6.556;2023-06-26T13:21:14;22.40;94.40
51908;DHT22;39320;53.214;6.556;2023-06-26T13:23:40;22.50;94.20
51908;DHT22;39320;53.214;6.556;2023-06-26T13:26:08;22.50;94.10
51908;DHT22;39320;53.214;6.556;2023-06-26T13:28:34;22.40;94.10
51908;DHT22;39320;53.214;6.556;2023-06-26T13:30:59;22.30;94.20
51908;DHT22;39320;53.214;6.556;2023-06-26T13:33:25;22.30;94.40
51908;DHT22;39320;53.214;6.556;2023-06-26T13:35:52;22.30;94.60
51908;DHT22;39320;53.214;6.556;2023-06-26T13:38:21;22.40;94.70
51908;DHT22;39320;53.214;6.556;2023-06-26T13:40:53;22.40;94.20
51908;DHT22;39320;53.214;6.556;2023-06-26T13:43:21;22.40;94.00
51908;DHT22;39320;53.214;6.556;2023-06-26T13:45:47;22.40;93.80
51908;DHT22;39320;53.214;6.556;2023-06-26T13:48:13;22.40;93.70
51908;DHT22;39320;53.214;6.556;2023-06-26T13:50:39;22.40;93.60
51908;DHT22;39320;53.214;6.556;2023-06-26T13:53:05;22.40;93.50
51908;DHT22;39320;53.214;6.556;2023-06-26T13:55:32;22.40;93.90
51908;DHT22;39320;53.214;6.556;2023-06-26T13:57:58;22.40;94.60
51908;DHT22;39320;53.214;6.556;2023-06-26T14:00:24;22.30;95.00
51908;DHT22;39320;53.214;6.556;2023-06-26T14:02:51;22.30;95.40
51908;DHT22;39320;53.214;6.556;2023-06-26T14:05:17;22.20;95.80
51908;DHT22;39320;53.214;6.556;2023-06-26T14:07:46;22.30;96.20
51908;DHT22;39320;53.214;6.556;2023-06-26T14:10:12;22.10;96.40
51908;DHT22;39320;53.214;6.556;2023-06-26T14:12:40;22.10;96.70
51908;DHT22;39320;53.214;6.556;2023-06-26T14:15:06;22.10;97.00
51908;DHT22;39320;53.214;6.556;2023-06-26T14:17:32;22.00;97.10
51908;DHT22;39320;53.214;6.556;2023-06-26T14:19:58;21.90;97.30
51908;DHT22;39320;53.214;6.556;2023-06-26T14:22:25;21.80;97.40
51908;DHT22;39320;53.214;6.556;2023-06-26T14:24:51;21.80;97.60
51908;DHT22;39320;53.214;6.556;2023-06-26T14:27:16;21.80;97.90
51908;DHT22;39320;53.214;6.556;2023-06-26T14:29:42;21.70;97.90
51908;DHT22;39320;53.214;6.556;2023-06-26T14:32:08;21.70;97.60
51908;DHT22;39320;53.214;6.556;2023-06-26T14:34:34;21.70;97.40
51908;DHT22;39320;53.214;6.556;2023-06-26T14:36:59;21.70;97.40
51908;DHT22;39320;53.214;6.556;2023-06-26T14:39:25;21.70;97.50
51908;DHT22;39320;53.214;6.556;2023-06-26T14:41:51;21.80;97.60
51908;DHT22;39320;53.214;6.556;2023-06-26T14:44:17;21.90;97.90
51908;DHT22;39320;53.214;6.556;2023-06-26T14:46:43;21.90;98.50
51908;DHT22;39320;53.214;6.556;2023-06-26T14:49:09;21.90;98.20
51908;DHT22;39320;53.214;6.556;2023-06-26T14:51:35;21.80;98.00
51908;DHT22;39320;53.214;6.556;2023-06-26T14:54:01;21.70;98.10
51908;DHT22;39320;53.214;6.556;2023-06-26T14:56:27;21.60;98.40
51908;DHT22;39320;53.214;6.556;2023-06-26T14:58:52;21.70;98.50
51908;DHT22;39320;53.214;6.556;2023-06-26T15:01:19;21.80;98.60
51908;DHT22;39320;53.214;6.556;2023-06-26T15:03:48;21.70;98.40
51908;DHT22;39320;53.214;6.556;2023-06-26T15:06:14;21.60;98.20
51908;DHT22;39320;53.214;6.556;2023-06-26T15:08:40;21.50;97.90
51908;DHT22;39320;53.214;6.556;2023-06-26T15:11:06;21.60;97.70
51908;DHT22;39320;53.214;6.556;2023-06-26T15:13:32;21.50;97.50
51908;DHT22;39320;53.214;6.556;2023-06-26T15:15:58;21.50;97.50
51908;DHT22;39320;53.214;6.556;2023-06-26T15:18:24;21.50;97.50
51908;DHT22;39320;53.214;6.556;2023-06-26T15:20:49;21.40;97.40
51908;DHT22;39320;53.214;6.556;2023-06-26T15:23:15;21.30;97.20
51908;DHT22;39320;53.214;6.556;2023-06-26T15:25:41;21.30;97.00
51908;DHT22;39320;53.214;6.556;2023-06-26T15:28:07;21.20;96.90
51908;DHT22;39320;53.214;6.556;2023-06-26T15:30:33;21.30;97.00
51908;DHT22;39320;53.214;6.556;2023-06-26T15:32:59;21.30;97.10
51908;DHT22;39320;53.214;6.556;2023-06-26T15:35:25;21.30;97.20
51908;DHT22;39320;53.214;6.556;2023-06-26T15:37:50;21.30;97.10
51908;DHT22;39320;53.214;6.556;2023-06-26T15:40:16;21.30;96.90
51908;DHT22;39320;53.214;6.556;2023-06-26T15:42:49;21.30;96.80